sensor_id;sensor_type;location;lat;lon;timestamp;pressure;altitude;pressure_sealevel;temperature;humidity
52839;BME280;39219;53.678;9.856;2024-03-02T00:01:17;100433.84;;;7.99;81.14
52839;BME280;39219;53.678;9.856;2024-03-02T00:03:45;100428.28;;;8.05;81.20
52839;BME280;39219;53.678;9.856;2024-03-02T00:06:11;100427.44;;;8.05;81.07
52839;BME280;39219;53.678;9.856;2024-03-02T00:08:38;100428.72;;;8.17;81.20
52839;BME280;39219;53.678;9.856;2024-03-02T00:11:04;100423.19;;;8.23;81.06
52839;BME280;39219;53.678;9.856;2024-03-02T00:13:31;100426.66;;;8.23;80.98
52839;BME280;39219;53.678;9.856;2024-03-02T00:15:58;100426.00;;;8.18;80.80
52839;BME280;39219;53.678;9.856;2024-03-02T00:18:26;100421.66;;;8.17;80.89
52839;BME280;39219;53.678;9.856;2024-03-02T00:20:55;100422.81;;;8.10;80.96
52839;BME280;39219;53.678;9.856;2024-03-02T00:23:23;100427.19;;;8.11;81.33
52839;BME280;39219;53.678;9.856;2024-03-02T00:25:50;100420.88;;;8.13;81.46
52839;BME280;39219;53.678;9.856;2024-03-02T00:28:20;100421.94;;;8.09;81.15
52839;BME280;39219;53.678;9.856;2024-03-02T00:30:58;100420.31;;;8.05;81.37
52839;BME280;39219;53.678;9.856;2024-03-02T00:33:27;100414.38;;;8.00;81.64
52839;BME280;39219;53.678;9.856;2024-03-02T00:35:55;100412.34;;;8.07;81.69
52839;BME280;39219;53.678;9.856;2024-03-02T00:38:22;100408.81;;;8.06;81.65
52839;BME280;39219;53.678;9.856;2024-03-02T00:40:49;100409.69;;;8.07;81.70
52839;BME280;39219;53.678;9.856;2024-03-02T00:43:42;100411.28;;;8.11;81.90
52839;BME280;39219;53.678;9.856;2024-03-02T00:46:11;100412.38;;;8.05;81.90
52839;BME280;39219;53.678;9.856;2024-03-02T00:48:40;100400.81;;;8.08;82.00
52839;BME280;39219;53.678;9.856;2024-03-02T00:51:12;100412.53;;;8.02;82.10
52839;BME280;39219;53.678;9.856;2024-03-02T00:53:38;100406.66;;;7.94;82.21
52839;BME280;39219;53.678;9.856;2024-03-02T00:56:09;100405.13;;;7.89;82.57
52839;BME280;39219;53.678;9.856;2024-03-02T00:58:36;100405.06;;;7.90;82.63
52839;BME280;39219;53.678;9.856;2024-03-02T01:01:03;100406.25;;;7.83;82.66
52839;BME280;39219;53.678;9.856;2024-03-02T01:03:30;100412.66;;;7.78;82.57
52839;BME280;39219;53.678;9.856;2024-03-02T01:05:57;100416.09;;;7.80;82.85
52839;BME280;39219;53.678;9.856;2024-03-02T01:08:25;100416.34;;;7.74;83.17
52839;BME280;39219;53.678;9.856;2024-03-02T01:10:51;100410.16;;;7.73;83.15
52839;BME280;39219;53.678;9.856;2024-03-02T01:13:18;100411.94;;;7.73;83.52
52839;BME280;39219;53.678;9.856;2024-03-02T01:15:45;100422.78;;;7.67;83.46
52839;BME280;39219;53.678;9.856;2024-03-02T01:18:11;100426.44;;;7.64;83.64
52839;BME280;39219;53.678;9.856;2024-03-02T01:20:38;100425.56;;;7.64;83.96
52839;BME280;39219;53.678;9.856;2024-03-02T01:23:04;100422.16;;;7.60;83.94
52839;BME280;39219;53.678;9.856;2024-03-02T01:25:32;100422.41;;;7.54;84.29
52839;BME280;39219;53.678;9.856;2024-03-02T01:27:58;100423.38;;;7.52;84.44
52839;BME280;39219;53.678;9.856;2024-03-02T01:30:25;100420.63;;;7.55;84.74
52839;BME280;39219;53.678;9.856;2024-03-02T01:32:52;100420.78;;;7.50;84.68
52839;BME280;39219;53.678;9.856;2024-03-02T01:35:18;100417.69;;;7.62;85.10
52839;BME280;39219;53.678;9.856;2024-03-02T01:37:45;100415.94;;;7.61;85.11
52839;BME280;39219;53.678;9.856;2024-03-02T01:40:12;100414.25;;;7.59;85.42
52839;BME280;39219;53.678;9.856;2024-03-02T01:42:40;100412.31;;;7.64;85.62
52839;BME280;39219;53.678;9.856;2024-03-02T01:45:07;100407.53;;;7.73;85.78
52839;BME280;39219;53.678;9.856;2024-03-02T01:47:34;100404.81;;;7.75;85.91
52839;BME280;39219;53.678;9.856;2024-03-02T01:50:01;100406.72;;;7.71;85.92
52839;BME280;39219;53.678;9.856;2024-03-02T01:52:27;100408.50;;;7.71;86.24
52839;BME280;39219;53.678;9.856;2024-03-02T01:54:54;100410.31;;;7.70;86.56
52839;BME280;39219;53.678;9.856;2024-03-02T01:57:21;100404.47;;;7.61;86.59
52839;BME280;39219;53.678;9.856;2024-03-02T01:59:49;100401.03;;;7.59;86.72
52839;BME280;39219;53.678;9.856;2024-03-02T02:02:16;100400.44;;;7.52;86.76
52839;BME280;39219;53.678;9.856;2024-03-02T02:04:42;100401.63;;;7.44;87.09
52839;BME280;39219;53.678;9.856;2024-03-02T02:07:09;100392.88;;;7.42;87.19
52839;BME280;39219;53.678;9.856;2024-03-02T02:09:36;100398.91;;;7.45;87.44
52839;BME280;39219;53.678;9.856;2024-03-02T02:12:03;100393.09;;;7.59;87.60
52839;BME280;39219;53.678;9.856;2024-03-02T02:14:32;100391.31;;;7.59;87.79
52839;BME280;39219;53.678;9.856;2024-03-02T02:16:59;100388.88;;;7.55;87.95
52839;BME280;39219;53.678;9.856;2024-03-02T02:19:26;100386.63;;;7.44;87.94
52839;BME280;39219;53.678;9.856;2024-03-02T02:21:54;100384.38;;;7.34;88.12
52839;BME280;39219;53.678;9.856;2024-03-02T02:24:20;100381.78;;;7.32;88.36
52839;BME280;39219;53.678;9.856;2024-03-02T02:26:47;100380.19;;;7.28;88.47
52839;BME280;39219;53.678;9.856;2024-03-02T02:29:13;100380.38;;;7.24;88.42
52839;BME280;39219;53.678;9.856;2024-03-02T02:31:40;100375.25;;;7.19;88.46
52839;BME280;39219;53.678;9.856;2024-03-02T02:34:07;100372.09;;;7.33;88.62
52839;BME280;39219;53.678;9.856;2024-03-02T02:36:36;100366.44;;;7.42;88.62
52839;BME280;39219;53.678;9.856;2024-03-02T02:39:06;100370.97;;;7.38;88.94
52839;BME280;39219;53.678;9.856;2024-03-02T02:41:33;100364.78;;;7.39;88.80
52839;BME280;39219;53.678;9.856;2024-03-02T02:44:00;100369.22;;;7.39;89.21
52839;BME280;39219;53.678;9.856;2024-03-02T02:46:26;100365.75;;;7.37;89.07
52839;BME280;39219;53.678;9.856;2024-03-02T02:48:53;100371.72;;;7.42;89.39
52839;BME280;39219;53.678;9.856;2024-03-02T02:51:19;100372.66;;;7.41;89.34
52839;BME280;39219;53.678;9.856;2024-03-02T02:53:46;100374.81;;;7.30;89.46
52839;BME280;39219;53.678;9.856;2024-03-02T02:56:14;100369.53;;;7.30;89.59
52839;BME280;39219;53.678;9.856;2024-03-02T02:58:40;100371.28;;;7.31;89.79
52839;BME280;39219;53.678;9.856;2024-03-02T03:01:07;100363.44;;;7.28;89.79
52839;BME280;39219;53.678;9.856;2024-03-02T03:03:33;100363.44;;;7.28;89.81
52839;BME280;39219;53.678;9.856;2024-03-02T03:06:00;100372.44;;;7.24;89.83
52839;BME280;39219;53.678;9.856;2024-03-02T03:08:27;100366.22;;;7.25;90.00
52839;BME280;39219;53.678;9.856;2024-03-02T03:10:53;100363.41;;;7.29;90.10
52839;BME280;39219;53.678;9.856;2024-03-02T03:13:21;100363.56;;;7.25;90.06
52839;BME280;39219;53.678;9.856;2024-03-02T03:15:48;100358.78;;;7.34;89.95
52839;BME280;39219;53.678;9.856;2024-03-02T03:18:14;100364.16;;;7.33;90.15
52839;BME280;39219;53.678;9.856;2024-03-02T03:20:41;100366.78;;;7.33;89.82
52839;BME280;39219;53.678;9.856;2024-03-02T03:23:07;100366.63;;;7.37;90.20
52839;BME280;39219;53.678;9.856;2024-03-02T03:25:34;100367.91;;;7.27;90.12
52839;BME280;39219;53.678;9.856;2024-03-02T03:28:00;100368.13;;;7.21;90.20
52839;BME280;39219;53.678;9.856;2024-03-02T03:30:29;100362.53;;;7.29;89.95
52839;BME280;39219;53.678;9.856;2024-03-02T03:32:56;100368.06;;;7.22;90.37
52839;BME280;39219;53.678;9.856;2024-03-02T03:35:22;100360.94;;;7.25;90.34
52839;BME280;39219;53.678;9.856;2024-03-02T03:37:49;100354.69;;;7.26;90.38
52839;BME280;39219;53.678;9.856;2024-03-02T03:40:15;100361.72;;;7.27;90.09
52839;BME280;39219;53.678;9.856;2024-03-02T03:42:43;100359.16;;;7.25;90.09
52839;BME280;39219;53.678;9.856;2024-03-02T03:45:09;100357.31;;;7.27;90.22
52839;BME280;39219;53.678;9.856;2024-03-02T03:47:37;100354.78;;;7.24;90.08
52839;BME280;39219;53.678;9.856;2024-03-02T03:50:05;100352.13;;;7.24;90.10
52839;BME280;39219;53.678;9.856;2024-03-02T03:52:32;100351.38;;;7.20;90.39
52839;BME280;39219;53.678;9.856;2024-03-02T03:54:58;100356.69;;;7.20;90.38
52839;BME280;39219;53.678;9.856;2024-03-02T03:57:25;100353.97;;;7.22;90.13
52839;BME280;39219;53.678;9.856;2024-03-02T03:59:51;100351.44;;;7.19;90.22
52839;BME280;39219;53.678;9.856;2024-03-02T04:02:18;100351.44;;;7.19;90.04
52839;BME280;39219;53.678;9.856;2024-03-02T04:04:46;100354.50;;;7.08;90.39
52839;BME280;39219;53.678;9.856;2024-03-02T04:07:12;100349.13;;;7.10;90.43
52839;BME280;39219;53.678;9.856;2024-03-02T04:09:39;100351.91;;;7.07;90.39
52839;BME280;39219;53.678;9.856;2024-03-02T04:12:05;100344.03;;;7.05;90.46
52839;BME280;39219;53.678;9.856;2024-03-02T04:14:32;100346.56;;;7.08;90.23
52839;BME280;39219;53.678;9.856;2024-03-02T04:16:58;100346.50;;;7.10;90.13
52839;BME280;39219;53.678;9.856;2024-03-02T04:19:25;100343.16;;;7.05;90.06
52839;BME280;39219;53.678;9.856;2024-03-02T04:21:53;100345.88;;;7.03;90.16
52839;BME280;39219;53.678;9.856;2024-03-02T04:24:19;100349.41;;;7.04;90.27
52839;BME280;39219;53.678;9.856;2024-03-02T04:26:46;100343.31;;;7.02;90.12
52839;BME280;39219;53.678;9.856;2024-03-02T04:29:12;100344.34;;;6.98;90.21
52839;BME280;39219;53.678;9.856;2024-03-02T04:31:39;100351.41;;;6.97;90.52
52839;BME280;39219;53.678;9.856;2024-03-02T04:34:05;100353.22;;;6.95;90.17
52839;BME280;39219;53.678;9.856;2024-03-02T04:36:32;100356.69;;;6.97;90.33
52839;BME280;39219;53.678;9.856;2024-03-02T04:38:59;100365.50;;;6.96;90.36
52839;BME280;39219;53.678;9.856;2024-03-02T04:41:26;100369.25;;;6.91;90.47
52839;BME280;39219;53.678;9.856;2024-03-02T04:43:53;100371.28;;;6.84;90.49
52839;BME280;39219;53.678;9.856;2024-03-02T04:46:19;100371.16;;;6.87;90.35
52839;BME280;39219;53.678;9.856;2024-03-02T04:48:45;100375.75;;;6.82;90.47
52839;BME280;39219;53.678;9.856;2024-03-02T04:51:13;100372.47;;;6.76;90.34
52839;BME280;39219;53.678;9.856;2024-03-02T04:53:40;100374.16;;;6.78;90.55
52839;BME280;39219;53.678;9.856;2024-03-02T04:56:07;100368.56;;;6.86;90.49
52839;BME280;39219;53.678;9.856;2024-03-02T04:59:04;100361.25;;;6.92;90.18
52839;BME280;39219;53.678;9.856;2024-03-02T05:01:31;100365.88;;;6.87;90.23
52839;BME280;39219;53.678;9.856;2024-03-02T05:03:58;100356.09;;;6.89;90.44
52839;BME280;39219;53.678;9.856;2024-03-02T05:06:24;100352.66;;;6.87;90.68
52839;BME280;39219;53.678;9.856;2024-03-02T05:08:50;100347.25;;;6.90;90.45
52839;BME280;39219;53.678;9.856;2024-03-02T05:11:18;100354.25;;;6.91;90.10
52839;BME280;39219;53.678;9.856;2024-03-02T05:14:02;100355.66;;;7.01;90.23
52839;BME280;39219;53.678;9.856;2024-03-02T05:16:28;100355.88;;;6.95;89.97
52839;BME280;39219;53.678;9.856;2024-03-02T05:18:55;100362.56;;;6.81;90.04
52839;BME280;39219;53.678;9.856;2024-03-02T05:21:21;100375.03;;;6.77;90.04
52839;BME280;39219;53.678;9.856;2024-03-02T05:23:48;100364.88;;;6.67;90.01
52839;BME280;39219;53.678;9.856;2024-03-02T05:26:14;100364.06;;;6.65;90.15
52839;BME280;39219;53.678;9.856;2024-03-02T05:28:43;100363.88;;;6.69;90.26
52839;BME280;39219;53.678;9.856;2024-03-02T05:31:10;100369.28;;;6.66;90.12
52839;BME280;39219;53.678;9.856;2024-03-02T05:33:37;100369.44;;;6.62;90.18
52839;BME280;39219;53.678;9.856;2024-03-02T05:36:04;100366.94;;;6.59;90.28
52839;BME280;39219;53.678;9.856;2024-03-02T05:38:31;100371.47;;;6.55;90.31
52839;BME280;39219;53.678;9.856;2024-03-02T05:40:57;100367.28;;;6.48;90.33
52839;BME280;39219;53.678;9.856;2024-03-02T05:43:24;100364.22;;;6.60;90.39
52839;BME280;39219;53.678;9.856;2024-03-02T05:45:51;100359.47;;;6.70;90.31
52839;BME280;39219;53.678;9.856;2024-03-02T05:48:18;100360.00;;;6.79;90.00
52839;BME280;39219;53.678;9.856;2024-03-02T05:50:44;100354.56;;;6.84;89.94
52839;BME280;39219;53.678;9.856;2024-03-02T05:53:11;100362.53;;;6.82;89.82
52839;BME280;39219;53.678;9.856;2024-03-02T05:55:37;100362.91;;;6.72;89.73
52839;BME280;39219;53.678;9.856;2024-03-02T05:58:04;100358.78;;;6.65;89.99
52839;BME280;39219;53.678;9.856;2024-03-02T06:00:47;100366.59;;;6.68;89.94
52839;BME280;39219;53.678;9.856;2024-03-02T06:03:15;100367.66;;;6.62;89.44
52839;BME280;39219;53.678;9.856;2024-03-02T06:05:42;100365.59;;;6.46;89.69
52839;BME280;39219;53.678;9.856;2024-03-02T06:08:08;100376.63;;;6.34;89.68
52839;BME280;39219;53.678;9.856;2024-03-02T06:10:34;100364.84;;;6.42;89.95
52839;BME280;39219;53.678;9.856;2024-03-02T06:13:01;100367.41;;;6.45;89.84
52839;BME280;39219;53.678;9.856;2024-03-02T06:15:27;100378.25;;;6.38;89.85
52839;BME280;39219;53.678;9.856;2024-03-02T06:17:54;100379.09;;;6.38;90.04
52839;BME280;39219;53.678;9.856;2024-03-02T06:20:22;100387.88;;;6.39;90.01
52839;BME280;39219;53.678;9.856;2024-03-02T06:22:48;100379.06;;;6.40;89.95
52839;BME280;39219;53.678;9.856;2024-03-02T06:25:14;100378.34;;;6.35;89.75
52839;BME280;39219;53.678;9.856;2024-03-02T06:27:41;100369.94;;;6.23;90.04
52839;BME280;39219;53.678;9.856;2024-03-02T06:30:08;100372.50;;;6.25;90.05
52839;BME280;39219;53.678;9.856;2024-03-02T06:32:35;100367.88;;;6.32;90.08
52839;BME280;39219;53.678;9.856;2024-03-02T06:35:01;100363.97;;;6.43;89.92
52839;BME280;39219;53.678;9.856;2024-03-02T06:37:30;100366.41;;;6.48;90.04
52839;BME280;39219;53.678;9.856;2024-03-02T06:39:57;100357.31;;;6.56;89.78
52839;BME280;39219;53.678;9.856;2024-03-02T06:42:23;100369.38;;;6.63;89.64
52839;BME280;39219;53.678;9.856;2024-03-02T06:44:50;100364.09;;;6.63;89.77
52839;BME280;39219;53.678;9.856;2024-03-02T06:47:16;100365.72;;;6.67;89.80
52839;BME280;39219;53.678;9.856;2024-03-02T06:49:43;100372.34;;;6.79;89.54
52839;BME280;39219;53.678;9.856;2024-03-02T06:52:09;100367.63;;;6.87;89.06
52839;BME280;39219;53.678;9.856;2024-03-02T06:54:37;100357.84;;;6.90;89.01
52839;BME280;39219;53.678;9.856;2024-03-02T06:57:04;100362.78;;;6.99;88.96
52839;BME280;39219;53.678;9.856;2024-03-02T06:59:30;100364.25;;;7.06;88.59
52839;BME280;39219;53.678;9.856;2024-03-02T07:01:58;100366.50;;;7.17;88.34
52839;BME280;39219;53.678;9.856;2024-03-02T07:04:25;100370.56;;;7.26;87.89
52839;BME280;39219;53.678;9.856;2024-03-02T07:06:51;100378.06;;;7.38;87.64
52839;BME280;39219;53.678;9.856;2024-03-02T07:09:18;100384.94;;;7.42;87.34
52839;BME280;39219;53.678;9.856;2024-03-02T07:11:49;100400.72;;;7.45;86.60
52839;BME280;39219;53.678;9.856;2024-03-02T07:14:15;100412.34;;;7.41;86.34
52839;BME280;39219;53.678;9.856;2024-03-02T07:16:42;100408.66;;;7.45;86.32
52839;BME280;39219;53.678;9.856;2024-03-02T07:19:08;100394.09;;;7.56;85.92
52839;BME280;39219;53.678;9.856;2024-03-02T07:21:35;100400.44;;;7.52;85.44
52839;BME280;39219;53.678;9.856;2024-03-02T07:24:01;100410.88;;;7.55;85.14
52839;BME280;39219;53.678;9.856;2024-03-02T07:26:29;100408.28;;;7.54;85.31
52839;BME280;39219;53.678;9.856;2024-03-02T07:28:57;100400.84;;;7.63;85.02
52839;BME280;39219;53.678;9.856;2024-03-02T07:31:24;100399.75;;;7.69;84.76
52839;BME280;39219;53.678;9.856;2024-03-02T07:33:51;100408.47;;;7.72;85.05
52839;BME280;39219;53.678;9.856;2024-03-02T07:36:17;100407.38;;;7.76;84.34
52839;BME280;39219;53.678;9.856;2024-03-02T07:38:44;100411.72;;;7.79;84.41
52839;BME280;39219;53.678;9.856;2024-03-02T07:41:11;100417.97;;;7.76;83.93
52839;BME280;39219;53.678;9.856;2024-03-02T07:43:38;100413.31;;;7.83;83.84
52839;BME280;39219;53.678;9.856;2024-03-02T07:46:06;100415.47;;;7.95;83.84
52839;BME280;39219;53.678;9.856;2024-03-02T07:48:32;100417.09;;;7.99;83.35
52839;BME280;39219;53.678;9.856;2024-03-02T07:50:59;100425.94;;;8.20;82.85
52839;BME280;39219;53.678;9.856;2024-03-02T07:53:27;100425.94;;;8.41;81.92
52839;BME280;39219;53.678;9.856;2024-03-02T07:55:53;100435.84;;;8.58;81.27
52839;BME280;39219;53.678;9.856;2024-03-02T07:58:22;100441.81;;;8.63;80.30
52839;BME280;39219;53.678;9.856;2024-03-02T08:00:48;100440.00;;;8.43;80.10
52839;BME280;39219;53.678;9.856;2024-03-02T08:03:16;100436.69;;;8.38;80.68
52839;BME280;39219;53.678;9.856;2024-03-02T08:05:44;100434.03;;;8.38;80.60
52839;BME280;39219;53.678;9.856;2024-03-02T08:08:11;100446.06;;;8.24;80.82
52839;BME280;39219;53.678;9.856;2024-03-02T08:10:37;100442.09;;;8.35;80.65
52839;BME280;39219;53.678;9.856;2024-03-02T08:13:04;100440.25;;;8.37;80.64
52839;BME280;39219;53.678;9.856;2024-03-02T08:15:30;100452.34;;;8.44;80.49
52839;BME280;39219;53.678;9.856;2024-03-02T08:17:57;100449.84;;;8.61;80.34
52839;BME280;39219;53.678;9.856;2024-03-02T08:20:24;100451.69;;;8.59;79.53
52839;BME280;39219;53.678;9.856;2024-03-02T08:22:51;100444.47;;;8.63;79.66
52839;BME280;39219;53.678;9.856;2024-03-02T08:25:20;100448.88;;;8.62;79.61
52839;BME280;39219;53.678;9.856;2024-03-02T08:27:46;100448.56;;;8.70;79.33
52839;BME280;39219;53.678;9.856;2024-03-02T08:30:13;100457.38;;;8.70;79.02
52839;BME280;39219;53.678;9.856;2024-03-02T08:32:40;100450.44;;;8.68;78.66
52839;BME280;39219;53.678;9.856;2024-03-02T08:35:06;100454.09;;;8.65;78.96
52839;BME280;39219;53.678;9.856;2024-03-02T08:37:34;100460.97;;;8.69;78.64
52839;BME280;39219;53.678;9.856;2024-03-02T08:40:04;100453.03;;;8.69;78.51
52839;BME280;39219;53.678;9.856;2024-03-02T08:42:32;100462.34;;;8.78;79.02
52839;BME280;39219;53.678;9.856;2024-03-02T08:44:59;100464.16;;;8.97;78.10
52839;BME280;39219;53.678;9.856;2024-03-02T08:47:26;100461.16;;;9.05;78.02
52839;BME280;39219;53.678;9.856;2024-03-02T08:49:53;100465.81;;;9.20;77.50
52839;BME280;39219;53.678;9.856;2024-03-02T08:52:19;100460.00;;;9.31;76.69
52839;BME280;39219;53.678;9.856;2024-03-02T08:54:47;100464.28;;;9.72;75.92
52839;BME280;39219;53.678;9.856;2024-03-02T08:57:13;100455.53;;;10.07;75.17
52839;BME280;39219;53.678;9.856;2024-03-02T08:59:40;100460.78;;;10.44;73.62
52839;BME280;39219;53.678;9.856;2024-03-02T09:02:06;100451.75;;;10.65;72.10
52839;BME280;39219;53.678;9.856;2024-03-02T09:04:33;100456.53;;;10.59;72.26
52839;BME280;39219;53.678;9.856;2024-03-02T09:06:59;100456.28;;;10.81;71.66
52839;BME280;39219;53.678;9.856;2024-03-02T09:09:26;100462.06;;;10.54;72.02
52839;BME280;39219;53.678;9.856;2024-03-02T09:11:54;100456.59;;;10.57;71.96
52839;BME280;39219;53.678;9.856;2024-03-02T09:14:22;100460.44;;;10.86;72.66
52839;BME280;39219;53.678;9.856;2024-03-02T09:16:49;100451.69;;;11.34;70.74
52839;BME280;39219;53.678;9.856;2024-03-02T09:19:15;100458.16;;;11.45;69.87
52839;BME280;39219;53.678;9.856;2024-03-02T09:21:42;100463.03;;;11.37;70.18
52839;BME280;39219;53.678;9.856;2024-03-02T09:24:09;100447.16;;;11.51;69.06
52839;BME280;39219;53.678;9.856;2024-03-02T09:26:35;100454.97;;;11.72;68.24
52839;BME280;39219;53.678;9.856;2024-03-02T09:29:03;100467.69;;;11.82;67.86
52839;BME280;39219;53.678;9.856;2024-03-02T09:31:29;100462.97;;;11.39;68.19
52839;BME280;39219;53.678;9.856;2024-03-02T09:33:56;100461.03;;;11.58;69.06
52839;BME280;39219;53.678;9.856;2024-03-02T09:36:22;100459.16;;;11.60;68.19
52839;BME280;39219;53.678;9.856;2024-03-02T09:38:49;100460.56;;;11.98;67.19
52839;BME280;39219;53.678;9.856;2024-03-02T09:41:15;100454.03;;;12.19;66.75
52839;BME280;39219;53.678;9.856;2024-03-02T09:43:42;100462.31;;;11.99;66.09
52839;BME280;39219;53.678;9.856;2024-03-02T09:46:10;100469.19;;;11.72;68.46
52839;BME280;39219;53.678;9.856;2024-03-02T09:48:37;100463.47;;;12.25;66.32
52839;BME280;39219;53.678;9.856;2024-03-02T09:51:04;100457.38;;;12.54;65.96
52839;BME280;39219;53.678;9.856;2024-03-02T09:53:32;100454.66;;;12.70;65.52
52839;BME280;39219;53.678;9.856;2024-03-02T09:55:59;100452.22;;;12.81;65.09
52839;BME280;39219;53.678;9.856;2024-03-02T09:58:26;100448.59;;;13.11;63.43
52839;BME280;39219;53.678;9.856;2024-03-02T10:00:53;100455.09;;;12.92;63.86
52839;BME280;39219;53.678;9.856;2024-03-02T10:03:22;100459.22;;;12.68;64.93
52839;BME280;39219;53.678;9.856;2024-03-02T10:05:49;100458.78;;;12.14;66.39
52839;BME280;39219;53.678;9.856;2024-03-02T10:08:17;100458.78;;;11.99;65.96
52839;BME280;39219;53.678;9.856;2024-03-02T10:10:43;100452.66;;;12.12;66.97
52839;BME280;39219;53.678;9.856;2024-03-02T10:13:10;100462.34;;;12.44;66.31
52839;BME280;39219;53.678;9.856;2024-03-02T10:15:38;100453.41;;;12.45;66.11
52839;BME280;39219;53.678;9.856;2024-03-02T10:18:08;100456.34;;;12.41;64.63
52839;BME280;39219;53.678;9.856;2024-03-02T10:20:37;100452.22;;;12.35;66.45
52839;BME280;39219;53.678;9.856;2024-03-02T10:23:11;100440.59;;;12.52;65.08
52839;BME280;39219;53.678;9.856;2024-03-02T10:25:38;100461.97;;;12.05;66.62
52839;BME280;39219;53.678;9.856;2024-03-02T10:28:04;100462.22;;;12.16;66.10
52839;BME280;39219;53.678;9.856;2024-03-02T10:30:32;100465.47;;;12.21;66.95
52839;BME280;39219;53.678;9.856;2024-03-02T10:32:58;100467.97;;;12.24;65.97
52839;BME280;39219;53.678;9.856;2024-03-02T10:35:26;100458.78;;;12.14;65.87
52839;BME280;39219;53.678;9.856;2024-03-02T10:37:54;100468.06;;;12.07;65.83
52839;BME280;39219;53.678;9.856;2024-03-02T10:40:21;100463.44;;;12.11;65.91
52839;BME280;39219;53.678;9.856;2024-03-02T10:42:49;100468.56;;;12.29;66.81
52839;BME280;39219;53.678;9.856;2024-03-02T10:45:16;100472.44;;;12.39;66.30
52839;BME280;39219;53.678;9.856;2024-03-02T10:47:43;100468.91;;;12.39;65.69
52839;BME280;39219;53.678;9.856;2024-03-02T10:50:10;100466.56;;;12.48;64.90
52839;BME280;39219;53.678;9.856;2024-03-02T10:52:36;100465.22;;;12.41;64.36
52839;BME280;39219;53.678;9.856;2024-03-02T10:55:06;100468.19;;;12.51;65.18
52839;BME280;39219;53.678;9.856;2024-03-02T10:57:41;100475.75;;;12.59;64.90
52839;BME280;39219;53.678;9.856;2024-03-02T11:00:11;100464.97;;;12.60;63.84
52839;BME280;39219;53.678;9.856;2024-03-02T11:02:42;100470.63;;;12.85;63.12
52839;BME280;39219;53.678;9.856;2024-03-02T11:05:17;100464.06;;;12.91;65.00
52839;BME280;39219;53.678;9.856;2024-03-02T11:07:47;100463.88;;;12.94;63.68
52839;BME280;39219;53.678;9.856;2024-03-02T11:10:16;100479.19;;;13.06;63.08
52839;BME280;39219;53.678;9.856;2024-03-02T11:12:49;100481.06;;;13.33;62.98
52839;BME280;39219;53.678;9.856;2024-03-02T11:15:18;100483.00;;;13.46;62.00
52839;BME280;39219;53.678;9.856;2024-03-02T11:17:46;100479.63;;;13.70;61.66
52839;BME280;39219;53.678;9.856;2024-03-02T11:20:13;100490.84;;;13.19;61.77
52839;BME280;39219;53.678;9.856;2024-03-02T11:22:41;100488.50;;;12.99;61.57
52839;BME280;39219;53.678;9.856;2024-03-02T11:25:23;100485.16;;;13.39;61.67
52839;BME280;39219;53.678;9.856;2024-03-02T11:28:00;100492.38;;;13.23;60.92
52839;BME280;39219;53.678;9.856;2024-03-02T11:30:51;100494.59;;;13.16;62.80
52839;BME280;39219;53.678;9.856;2024-03-02T11:33:25;100491.63;;;13.21;62.11
52839;BME280;39219;53.678;9.856;2024-03-02T11:35:52;100492.03;;;13.43;61.28
52839;BME280;39219;53.678;9.856;2024-03-02T11:38:19;100490.41;;;13.40;61.23
52839;BME280;39219;53.678;9.856;2024-03-02T11:40:47;100495.06;;;13.23;60.77
52839;BME280;39219;53.678;9.856;2024-03-02T11:43:13;100494.19;;;13.08;61.97
52839;BME280;39219;53.678;9.856;2024-03-02T11:45:42;100490.59;;;13.23;61.97
52839;BME280;39219;53.678;9.856;2024-03-02T11:48:11;100484.78;;;13.31;60.92
52839;BME280;39219;53.678;9.856;2024-03-02T11:50:41;100487.44;;;13.31;59.89
52839;BME280;39219;53.678;9.856;2024-03-02T11:53:09;100492.38;;;13.23;59.56
52839;BME280;39219;53.678;9.856;2024-03-02T11:55:38;100496.63;;;13.41;59.95
52839;BME280;39219;53.678;9.856;2024-03-02T11:58:07;100489.47;;;13.42;60.99
52839;BME280;39219;53.678;9.856;2024-03-02T12:00:33;100491.09;;;13.58;60.60
52839;BME280;39219;53.678;9.856;2024-03-02T12:03:01;100490.44;;;13.55;59.25
52839;BME280;39219;53.678;9.856;2024-03-02T12:05:27;100491.47;;;13.52;60.34
52839;BME280;39219;53.678;9.856;2024-03-02T12:07:56;100489.38;;;13.57;59.41
52839;BME280;39219;53.678;9.856;2024-03-02T12:10:22;100481.09;;;13.48;59.67
52839;BME280;39219;53.678;9.856;2024-03-02T12:12:55;100482.31;;;13.56;58.98
52839;BME280;39219;53.678;9.856;2024-03-02T12:15:25;100472.75;;;13.66;60.66
52839;BME280;39219;53.678;9.856;2024-03-02T12:17:55;100476.41;;;13.65;59.42
52839;BME280;39219;53.678;9.856;2024-03-02T12:20:22;100470.47;;;13.60;58.86
52839;BME280;39219;53.678;9.856;2024-03-02T12:22:50;100479.81;;;13.39;60.11
52839;BME280;39219;53.678;9.856;2024-03-02T12:25:17;100475.81;;;13.32;60.73
52839;BME280;39219;53.678;9.856;2024-03-02T12:27:44;100464.75;;;13.52;61.03
52839;BME280;39219;53.678;9.856;2024-03-02T12:30:12;100465.78;;;13.64;60.54
52839;BME280;39219;53.678;9.856;2024-03-02T12:32:40;100469.50;;;13.75;60.18
52839;BME280;39219;53.678;9.856;2024-03-02T12:35:07;100461.59;;;13.60;58.26
52839;BME280;39219;53.678;9.856;2024-03-02T12:37:42;100461.31;;;13.64;59.29
52839;BME280;39219;53.678;9.856;2024-03-02T12:40:09;100461.69;;;13.72;60.11
52839;BME280;39219;53.678;9.856;2024-03-02T12:42:36;100458.84;;;13.61;58.41
52839;BME280;39219;53.678;9.856;2024-03-02T12:45:03;100462.06;;;13.38;59.69
52839;BME280;39219;53.678;9.856;2024-03-02T12:47:30;100461.78;;;13.43;61.27
52839;BME280;39219;53.678;9.856;2024-03-02T12:49:58;100462.66;;;13.43;59.01
52839;BME280;39219;53.678;9.856;2024-03-02T12:52:24;100457.59;;;13.53;59.68
52839;BME280;39219;53.678;9.856;2024-03-02T12:54:52;100460.44;;;13.35;58.53
52839;BME280;39219;53.678;9.856;2024-03-02T12:57:25;100460.34;;;13.37;60.19
52839;BME280;39219;53.678;9.856;2024-03-02T12:59:51;100456.56;;;13.55;59.63